sensor_id;sensor_type;location;lat;lon;timestamp;temperature;humidity
71128;SHT30;59249;59.736;30.568;2022-11-27T00:00:35;-8.93;78.90
71128;SHT30;59249;59.736;30.568;2022-11-27T00:03:05;-8.82;78.65
71128;SHT30;59249;59.736;30.568;2022-11-27T00:05:34;-8.86;78.59
71128;SHT30;59249;59.736;30.568;2022-11-27T00:08:04;-8.90;78.69
71128;SHT30;59249;59.736;30.568;2022-11-27T00:10:33;-8.78;78.72
71128;SHT30;59249;59.736;30.568;2022-11-27T00:13:01;-8.90;78.49
71128;SHT30;59249;59.736;30.568;2022-11-27T00:15:30;-8.85;78.43
71128;SHT30;59249;59.736;30.568;2022-11-27T00:17:59;-8.89;78.41
71128;SHT30;59249;59.736;30.568;2022-11-27T00:20:29;-8.96;78.35
71128;SHT30;59249;59.736;30.568;2022-11-27T00:22:57;-9.00;78.49
71128;SHT30;59249;59.736;30.568;2022-11-27T00:25:26;-8.98;78.53
71128;SHT30;59249;59.736;30.568;2022-11-27T00:27:55;-9.08;78.47
71128;SHT30;59249;59.736;30.568;2022-11-27T00:30:27;-9.01;78.59
71128;SHT30;59249;59.736;30.568;2022-11-27T00:32:58;-9.00;78.64
71128;SHT30;59249;59.736;30.568;2022-11-27T00:35:30;-8.99;78.60
71128;SHT30;59249;59.736;30.568;2022-11-27T00:37:59;-8.98;78.53
71128;SHT30;59249;59.736;30.568;2022-11-27T00:40:28;-8.98;78.61
71128;SHT30;59249;59.736;30.568;2022-11-27T00:42:57;-8.96;78.53
71128;SHT30;59249;59.736;30.568;2022-11-27T00:45:28;-8.98;78.52
71128;SHT30;59249;59.736;30.568;2022-11-27T00:47:56;-9.03;78.42
71128;SHT30;59249;59.736;30.568;2022-11-27T00:50:26;-9.05;78.48
71128;SHT30;59249;59.736;30.568;2022-11-27T00:52:59;-9.12;78.67
71128;SHT30;59249;59.736;30.568;2022-11-27T00:55:28;-9.11;78.67
71128;SHT30;59249;59.736;30.568;2022-11-27T00:57:57;-8.95;78.81
71128;SHT30;59249;59.736;30.568;2022-11-27T01:00:25;-8.89;78.75
71128;SHT30;59249;59.736;30.568;2022-11-27T01:02:54;-8.80;78.73
71128;SHT30;59249;59.736;30.568;2022-11-27T01:05:24;-8.79;78.55
71128;SHT30;59249;59.736;30.568;2022-11-27T01:07:53;-8.81;78.28
71128;SHT30;59249;59.736;30.568;2022-11-27T01:10:24;-8.75;78.26
71128;SHT30;59249;59.736;30.568;2022-11-27T01:12:52;-8.84;78.28
71128;SHT30;59249;59.736;30.568;2022-11-27T01:15:25;-8.84;78.20
71128;SHT30;59249;59.736;30.568;2022-11-27T01:17:55;-8.89;78.28
71128;SHT30;59249;59.736;30.568;2022-11-27T01:20:23;-8.98;78.36
71128;SHT30;59249;59.736;30.568;2022-11-27T01:22:59;-9.02;78.23
71128;SHT30;59249;59.736;30.568;2022-11-27T01:25:33;-8.98;78.25
71128;SHT30;59249;59.736;30.568;2022-11-27T01:28:04;-9.01;78.42
71128;SHT30;59249;59.736;30.568;2022-11-27T01:30:36;-9.13;78.41
71128;SHT30;59249;59.736;30.568;2022-11-27T01:33:05;-9.09;78.48
71128;SHT30;59249;59.736;30.568;2022-11-27T01:35:35;-9.10;78.65
71128;SHT30;59249;59.736;30.568;2022-11-27T01:38:05;-8.99;78.70
71128;SHT30;59249;59.736;30.568;2022-11-27T01:40:36;-8.98;78.56
71128;SHT30;59249;59.736;30.568;2022-11-27T01:43:08;-8.85;78.53
71128;SHT30;59249;59.736;30.568;2022-11-27T01:45:40;-8.90;78.42
71128;SHT30;59249;59.736;30.568;2022-11-27T01:48:12;-8.82;78.53
71128;SHT30;59249;59.736;30.568;2022-11-27T01:50:41;-8.81;78.26
71128;SHT30;59249;59.736;30.568;2022-11-27T01:53:17;-8.83;78.20
71128;SHT30;59249;59.736;30.568;2022-11-27T01:55:55;-8.82;78.23
71128;SHT30;59249;59.736;30.568;2022-11-27T01:58:29;-8.74;78.51
71128;SHT30;59249;59.736;30.568;2022-11-27T02:01:00;-8.78;78.51
71128;SHT30;59249;59.736;30.568;2022-11-27T02:03:29;-8.65;78.40
71128;SHT30;59249;59.736;30.568;2022-11-27T02:05:58;-8.69;78.19
71128;SHT30;59249;59.736;30.568;2022-11-27T02:08:27;-8.70;78.10
71128;SHT30;59249;59.736;30.568;2022-11-27T02:11:05;-8.65;78.08
71128;SHT30;59249;59.736;30.568;2022-11-27T02:13:40;-8.59;78.41
71128;SHT30;59249;59.736;30.568;2022-11-27T02:16:20;-8.46;78.30
71128;SHT30;59249;59.736;30.568;2022-11-27T02:19:01;-8.44;78.18
71128;SHT30;59249;59.736;30.568;2022-11-27T02:21:44;-8.39;78.21
71128;SHT30;59249;59.736;30.568;2022-11-27T02:24:48;-8.40;77.96
71128;SHT30;59249;59.736;30.568;2022-11-27T02:27:56;-8.41;77.69
71128;SHT30;59249;59.736;30.568;2022-11-27T02:30:37;-8.44;77.60
71128;SHT30;59249;59.736;30.568;2022-11-27T02:33:18;-8.42;77.59
71128;SHT30;59249;59.736;30.568;2022-11-27T02:35:58;-8.44;77.51
71128;SHT30;59249;59.736;30.568;2022-11-27T02:38:40;-8.54;77.60
71128;SHT30;59249;59.736;30.568;2022-11-27T02:41:20;-8.61;77.97
71128;SHT30;59249;59.736;30.568;2022-11-27T02:43:55;-8.60;78.01
71128;SHT30;59249;59.736;30.568;2022-11-27T02:46:28;-8.72;78.08
71128;SHT30;59249;59.736;30.568;2022-11-27T02:49:05;-8.65;78.30
71128;SHT30;59249;59.736;30.568;2022-11-27T02:51:38;-8.57;78.44
71128;SHT30;59249;59.736;30.568;2022-11-27T02:54:15;-8.53;78.50
71128;SHT30;59249;59.736;30.568;2022-11-27T02:56:49;-8.58;78.25
71128;SHT30;59249;59.736;30.568;2022-11-27T02:59:20;-8.52;78.33
71128;SHT30;59249;59.736;30.568;2022-11-27T03:01:56;-8.40;78.35
71128;SHT30;59249;59.736;30.568;2022-11-27T03:04:32;-8.41;78.06
71128;SHT30;59249;59.736;30.568;2022-11-27T03:07:08;-8.44;77.96
71128;SHT30;59249;59.736;30.568;2022-11-27T03:09:44;-8.40;77.94
71128;SHT30;59249;59.736;30.568;2022-11-27T03:12:17;-8.44;77.71
71128;SHT30;59249;59.736;30.568;2022-11-27T03:14:47;-8.42;77.97
71128;SHT30;59249;59.736;30.568;2022-11-27T03:17:31;-8.44;77.98
71128;SHT30;59249;59.736;30.568;2022-11-27T03:20:12;-8.44;77.88
71128;SHT30;59249;59.736;30.568;2022-11-27T03:22:45;-8.42;77.86
71128;SHT30;59249;59.736;30.568;2022-11-27T03:25:14;-8.44;78.11
71128;SHT30;59249;59.736;30.568;2022-11-27T03:27:54;-8.30;78.43
71128;SHT30;59249;59.736;30.568;2022-11-27T03:30:24;-8.26;78.08
71128;SHT30;59249;59.736;30.568;2022-11-27T03:32:54;-8.24;78.05
71128;SHT30;59249;59.736;30.568;2022-11-27T03:35:25;-8.25;77.87
71128;SHT30;59249;59.736;30.568;2022-11-27T03:37:55;-8.19;77.91
71128;SHT30;59249;59.736;30.568;2022-11-27T03:40:38;-8.23;77.99
71128;SHT30;59249;59.736;30.568;2022-11-27T03:43:18;-8.07;78.10
71128;SHT30;59249;59.736;30.568;2022-11-27T03:45:56;-8.05;77.94
71128;SHT30;59249;59.736;30.568;2022-11-27T03:48:35;-8.11;77.64
71128;SHT30;59249;59.736;30.568;2022-11-27T03:51:16;-8.15;77.67
71128;SHT30;59249;59.736;30.568;2022-11-27T03:53:55;-8.19;77.48
71128;SHT30;59249;59.736;30.568;2022-11-27T03:56:36;-8.21;77.89
71128;SHT30;59249;59.736;30.568;2022-11-27T03:59:11;-8.16;77.95
71128;SHT30;59249;59.736;30.568;2022-11-27T04:01:41;-8.09;78.05
71128;SHT30;59249;59.736;30.568;2022-11-27T04:04:12;-8.01;77.88
71128;SHT30;59249;59.736;30.568;2022-11-27T04:06:41;-7.99;77.90
71128;SHT30;59249;59.736;30.568;2022-11-27T04:09:09;-7.90;77.82
71128;SHT30;59249;59.736;30.568;2022-11-27T04:11:39;-7.84;77.65
71128;SHT30;59249;59.736;30.568;2022-11-27T04:14:08;-7.78;77.45
71128;SHT30;59249;59.736;30.568;2022-11-27T04:16:40;-7.76;77.74
71128;SHT30;59249;59.736;30.568;2022-11-27T04:19:10;-7.80;77.73
71128;SHT30;59249;59.736;30.568;2022-11-27T04:21:40;-7.73;77.80
71128;SHT30;59249;59.736;30.568;2022-11-27T04:24:09;-7.65;77.69
71128;SHT30;59249;59.736;30.568;2022-11-27T04:26:42;-7.58;77.58
71128;SHT30;59249;59.736;30.568;2022-11-27T04:29:12;-7.51;77.66
71128;SHT30;59249;59.736;30.568;2022-11-27T04:31:41;-7.44;77.56
71128;SHT30;59249;59.736;30.568;2022-11-27T04:34:11;-7.44;77.67
71128;SHT30;59249;59.736;30.568;2022-11-27T04:36:40;-7.38;77.60
71128;SHT30;59249;59.736;30.568;2022-11-27T04:39:09;-7.34;77.32
71128;SHT30;59249;59.736;30.568;2022-11-27T04:41:39;-7.28;77.28
71128;SHT30;59249;59.736;30.568;2022-11-27T04:44:10;-7.27;77.33
71128;SHT30;59249;59.736;30.568;2022-11-27T04:46:39;-7.32;77.13
71128;SHT30;59249;59.736;30.568;2022-11-27T04:49:08;-7.29;77.27
71128;SHT30;59249;59.736;30.568;2022-11-27T04:51:39;-7.28;77.36
71128;SHT30;59249;59.736;30.568;2022-11-27T04:54:14;-7.32;77.40
71128;SHT30;59249;59.736;30.568;2022-11-27T04:56:49;-7.26;77.48
71128;SHT30;59249;59.736;30.568;2022-11-27T04:59:18;-7.38;77.41
71128;SHT30;59249;59.736;30.568;2022-11-27T05:01:47;-7.32;77.77
71128;SHT30;59249;59.736;30.568;2022-11-27T05:04:16;-7.30;77.99
71128;SHT30;59249;59.736;30.568;2022-11-27T05:06:47;-7.28;77.66
71128;SHT30;59249;59.736;30.568;2022-11-27T05:09:16;-7.28;77.77
71128;SHT30;59249;59.736;30.568;2022-11-27T05:11:45;-7.32;77.75
71128;SHT30;59249;59.736;30.568;2022-11-27T05:14:14;-7.28;77.98
71128;SHT30;59249;59.736;30.568;2022-11-27T05:16:47;-7.21;77.97
71128;SHT30;59249;59.736;30.568;2022-11-27T05:19:18;-7.18;77.96
71128;SHT30;59249;59.736;30.568;2022-11-27T05:21:50;-7.22;77.96
71128;SHT30;59249;59.736;30.568;2022-11-27T05:24:21;-7.16;77.93
71128;SHT30;59249;59.736;30.568;2022-11-27T05:26:50;-7.12;77.93
71128;SHT30;59249;59.736;30.568;2022-11-27T05:29:20;-7.09;78.03
71128;SHT30;59249;59.736;30.568;2022-11-27T05:31:49;-7.16;77.91
71128;SHT30;59249;59.736;30.568;2022-11-27T05:34:19;-7.14;77.90
71128;SHT30;59249;59.736;30.568;2022-11-27T05:36:49;-7.13;77.99
71128;SHT30;59249;59.736;30.568;2022-11-27T05:39:18;-7.11;78.18
71128;SHT30;59249;59.736;30.568;2022-11-27T05:41:55;-7.13;78.12
71128;SHT30;59249;59.736;30.568;2022-11-27T05:44:25;-7.09;78.32
71128;SHT30;59249;59.736;30.568;2022-11-27T05:46:54;-7.03;78.39
71128;SHT30;59249;59.736;30.568;2022-11-27T05:49:24;-6.98;78.18
71128;SHT30;59249;59.736;30.568;2022-11-27T05:51:55;-6.97;78.35
71128;SHT30;59249;59.736;30.568;2022-11-27T05:54:24;-6.88;78.41
71128;SHT30;59249;59.736;30.568;2022-11-27T05:56:55;-6.95;78.50
71128;SHT30;59249;59.736;30.568;2022-11-27T05:59:24;-6.88;78.52
71128;SHT30;59249;59.736;30.568;2022-11-27T06:01:53;-6.91;78.42
71128;SHT30;59249;59.736;30.568;2022-11-27T06:04:21;-6.93;78.41
71128;SHT30;59249;59.736;30.568;2022-11-27T06:06:51;-6.86;78.44
71128;SHT30;59249;59.736;30.568;2022-11-27T06:09:21;-6.97;78.53
71128;SHT30;59249;59.736;30.568;2022-11-27T06:11:49;-7.01;78.55
71128;SHT30;59249;59.736;30.568;2022-11-27T06:14:18;-6.91;78.59
71128;SHT30;59249;59.736;30.568;2022-11-27T06:16:47;-6.90;78.55
71128;SHT30;59249;59.736;30.568;2022-11-27T06:19:16;-6.85;78.60
71128;SHT30;59249;59.736;30.568;2022-11-27T06:21:45;-6.90;78.75
71128;SHT30;59249;59.736;30.568;2022-11-27T06:24:18;-6.82;78.71
71128;SHT30;59249;59.736;30.568;2022-11-27T06:26:48;-6.85;78.84
71128;SHT30;59249;59.736;30.568;2022-11-27T06:29:29;-6.86;79.01
71128;SHT30;59249;59.736;30.568;2022-11-27T06:32:03;-6.77;79.15
71128;SHT30;59249;59.736;30.568;2022-11-27T06:34:42;-6.88;79.26
71128;SHT30;59249;59.736;30.568;2022-11-27T06:37:18;-6.79;79.26
71128;SHT30;59249;59.736;30.568;2022-11-27T06:39:52;-6.79;79.31
71128;SHT30;59249;59.736;30.568;2022-11-27T06:42:29;-6.79;79.24
71128;SHT30;59249;59.736;30.568;2022-11-27T06:45:07;-6.74;79.33
71128;SHT30;59249;59.736;30.568;2022-11-27T06:47:36;-6.66;79.27
71128;SHT30;59249;59.736;30.568;2022-11-27T06:50:07;-6.60;79.28
71128;SHT30;59249;59.736;30.568;2022-11-27T06:52:36;-6.58;79.19
71128;SHT30;59249;59.736;30.568;2022-11-27T06:55:10;-6.60;79.11
71128;SHT30;59249;59.736;30.568;2022-11-27T06:57:52;-6.60;79.20
71128;SHT30;59249;59.736;30.568;2022-11-27T07:00:22;-6.57;79.17
71128;SHT30;59249;59.736;30.568;2022-11-27T07:02:53;-6.56;79.09
71128;SHT30;59249;59.736;30.568;2022-11-27T07:05:25;-6.51;79.10
71128;SHT30;59249;59.736;30.568;2022-11-27T07:07:58;-6.54;79.15
71128;SHT30;59249;59.736;30.568;2022-11-27T07:10:38;-6.46;79.33
71128;SHT30;59249;59.736;30.568;2022-11-27T07:13:09;-6.40;79.35
71128;SHT30;59249;59.736;30.568;2022-11-27T07:15:42;-6.30;79.36
71128;SHT30;59249;59.736;30.568;2022-11-27T07:18:13;-6.23;79.20
71128;SHT30;59249;59.736;30.568;2022-11-27T07:21:05;-6.23;79.04
71128;SHT30;59249;59.736;30.568;2022-11-27T07:23:35;-6.22;78.89
71128;SHT30;59249;59.736;30.568;2022-11-27T07:26:13;-6.17;78.92
71128;SHT30;59249;59.736;30.568;2022-11-27T07:28:49;-6.22;78.85
71128;SHT30;59249;59.736;30.568;2022-11-27T07:31:21;-6.20;78.88
71128;SHT30;59249;59.736;30.568;2022-11-27T07:33:53;-6.17;78.92
71128;SHT30;59249;59.736;30.568;2022-11-27T07:36:44;-6.09;79.09
71128;SHT30;59249;59.736;30.568;2022-11-27T07:39:34;-6.17;78.74
71128;SHT30;59249;59.736;30.568;2022-11-27T07:42:29;-6.19;78.61
71128;SHT30;59249;59.736;30.568;2022-11-27T07:45:25;-6.14;79.03
71128;SHT30;59249;59.736;30.568;2022-11-27T07:47:55;-6.11;79.26
71128;SHT30;59249;59.736;30.568;2022-11-27T07:50:26;-6.07;79.13
71128;SHT30;59249;59.736;30.568;2022-11-27T07:52:55;-6.05;78.98
71128;SHT30;59249;59.736;30.568;2022-11-27T07:55:23;-6.06;79.05
71128;SHT30;59249;59.736;30.568;2022-11-27T07:57:52;-6.03;78.98
71128;SHT30;59249;59.736;30.568;2022-11-27T08:00:23;-6.02;79.05
71128;SHT30;59249;59.736;30.568;2022-11-27T08:02:52;-5.98;79.17
71128;SHT30;59249;59.736;30.568;2022-11-27T08:05:21;-5.87;79.16
71128;SHT30;59249;59.736;30.568;2022-11-27T08:07:50;-5.95;79.20
71128;SHT30;59249;59.736;30.568;2022-11-27T08:10:21;-5.98;79.09
71128;SHT30;59249;59.736;30.568;2022-11-27T08:12:49;-5.90;79.39
71128;SHT30;59249;59.736;30.568;2022-11-27T08:15:20;-5.86;79.49
71128;SHT30;59249;59.736;30.568;2022-11-27T08:17:50;-5.90;79.40
71128;SHT30;59249;59.736;30.568;2022-11-27T08:20:19;-5.85;79.46
71128;SHT30;59249;59.736;30.568;2022-11-27T08:22:49;-5.78;79.62
71128;SHT30;59249;59.736;30.568;2022-11-27T08:25:25;-5.80;79.28
71128;SHT30;59249;59.736;30.568;2022-11-27T08:27:53;-5.85;79.47
71128;SHT30;59249;59.736;30.568;2022-11-27T08:30:23;-5.77;79.55
71128;SHT30;59249;59.736;30.568;2022-11-27T08:32:53;-5.77;79.38
71128;SHT30;59249;59.736;30.568;2022-11-27T08:35:23;-5.82;79.55
71128;SHT30;59249;59.736;30.568;2022-11-27T08:37:55;-5.78;79.71
71128;SHT30;59249;59.736;30.568;2022-11-27T08:40:25;-5.72;79.64
71128;SHT30;59249;59.736;30.568;2022-11-27T08:42:57;-5.69;79.65
71128;SHT30;59249;59.736;30.568;2022-11-27T08:45:27;-5.63;79.79
71128;SHT30;59249;59.736;30.568;2022-11-27T08:47:57;-5.51;79.61
71128;SHT30;59249;59.736;30.568;2022-11-27T08:50:26;-5.45;79.49
71128;SHT30;59249;59.736;30.568;2022-11-27T08:52:56;-5.35;79.58
71128;SHT30;59249;59.736;30.568;2022-11-27T08:55:25;-5.32;79.36
71128;SHT30;59249;59.736;30.568;2022-11-27T08:57:53;-5.26;79.22
71128;SHT30;59249;59.736;30.568;2022-11-27T09:00:22;-5.22;79.25
71128;SHT30;59249;59.736;30.568;2022-11-27T09:02:54;-5.21;79.12
71128;SHT30;59249;59.736;30.568;2022-11-27T09:05:25;-5.11;78.92
71128;SHT30;59249;59.736;30.568;2022-11-27T09:07:54;-5.17;78.84
71128;SHT30;59249;59.736;30.568;2022-11-27T09:10:23;-5.06;79.10
71128;SHT30;59249;59.736;30.568;2022-11-27T09:12:52;-5.09;78.76
71128;SHT30;59249;59.736;30.568;2022-11-27T09:15:23;-5.05;79.10
71128;SHT30;59249;59.736;30.568;2022-11-27T09:17:51;-5.05;78.86
71128;SHT30;59249;59.736;30.568;2022-11-27T09:20:20;-4.98;79.00
71128;SHT30;59249;59.736;30.568;2022-11-27T09:22:50;-4.93;79.02
71128;SHT30;59249;59.736;30.568;2022-11-27T09:25:23;-4.98;79.23
71128;SHT30;59249;59.736;30.568;2022-11-27T09:27:57;-4.92;79.35
71128;SHT30;59249;59.736;30.568;2022-11-27T09:30:26;-4.92;79.51
71128;SHT30;59249;59.736;30.568;2022-11-27T09:32:58;-4.95;79.36
71128;SHT30;59249;59.736;30.568;2022-11-27T09:35:29;-4.79;79.38
71128;SHT30;59249;59.736;30.568;2022-11-27T09:38:00;-4.74;79.50
71128;SHT30;59249;59.736;30.568;2022-11-27T09:40:29;-4.67;79.46
71128;SHT30;59249;59.736;30.568;2022-11-27T09:43:02;-4.62;78.98
71128;SHT30;59249;59.736;30.568;2022-11-27T09:45:43;-4.66;79.01
71128;SHT30;59249;59.736;30.568;2022-11-27T09:48:20;-4.64;79.06
71128;SHT30;59249;59.736;30.568;2022-11-27T09:50:52;-4.75;79.26
71128;SHT30;59249;59.736;30.568;2022-11-27T09:53:32;-4.72;79.58
71128;SHT30;59249;59.736;30.568;2022-11-27T09:56:11;-4.77;79.48
71128;SHT30;59249;59.736;30.568;2022-11-27T09:58:45;-4.75;79.87
71128;SHT30;59249;59.736;30.568;2022-11-27T10:01:19;-4.72;79.66
71128;SHT30;59249;59.736;30.568;2022-11-27T10:04:00;-4.69;79.66
71128;SHT30;59249;59.736;30.568;2022-11-27T10:06:36;-4.65;79.43
71128;SHT30;59249;59.736;30.568;2022-11-27T10:09:20;-4.63;79.45
71128;SHT30;59249;59.736;30.568;2022-11-27T10:12:03;-4.63;79.42
71128;SHT30;59249;59.736;30.568;2022-11-27T10:14:48;-4.62;79.44
71128;SHT30;59249;59.736;30.568;2022-11-27T10:17:24;-4.57;79.81
71128;SHT30;59249;59.736;30.568;2022-11-27T10:20:02;-4.49;79.82
71128;SHT30;59249;59.736;30.568;2022-11-27T10:22:48;-4.39;79.50
71128;SHT30;59249;59.736;30.568;2022-11-27T10:25:24;-4.37;79.27
71128;SHT30;59249;59.736;30.568;2022-11-27T10:28:11;-4.34;79.16
71128;SHT30;59249;59.736;30.568;2022-11-27T10:30:50;-4.30;79.50
71128;SHT30;59249;59.736;30.568;2022-11-27T10:33:34;-4.22;79.50
71128;SHT30;59249;59.736;30.568;2022-11-27T10:36:11;-4.14;79.20
71128;SHT30;59249;59.736;30.568;2022-11-27T10:38:43;-4.11;79.07
71128;SHT30;59249;59.736;30.568;2022-11-27T10:41:20;-4.04;78.95
71128;SHT30;59249;59.736;30.568;2022-11-27T10:44:26;-4.08;79.00
71128;SHT30;59249;59.736;30.568;2022-11-27T10:47:00;-4.07;79.15
71128;SHT30;59249;59.736;30.568;2022-11-27T10:49:30;-4.02;79.20
71128;SHT30;59249;59.736;30.568;2022-11-27T10:52:03;-4.02;79.15
71128;SHT30;59249;59.736;30.568;2022-11-27T10:55:14;-4.02;79.09
71128;SHT30;59249;59.736;30.568;2022-11-27T10:58:20;-4.04;79.04
71128;SHT30;59249;59.736;30.568;2022-11-27T11:01:00;-4.15;79.19
71128;SHT30;59249;59.736;30.568;2022-11-27T11:03:35;-4.11;79.35
71128;SHT30;59249;59.736;30.568;2022-11-27T11:06:17;-4.13;79.41
71128;SHT30;59249;59.736;30.568;2022-11-27T11:09:04;-4.05;79.42
71128;SHT30;59249;59.736;30.568;2022-11-27T11:11:33;-4.06;79.60
71128;SHT30;59249;59.736;30.568;2022-11-27T11:14:16;-4.02;79.67
71128;SHT30;59249;59.736;30.568;2022-11-27T11:16:51;-3.96;79.51
71128;SHT30;59249;59.736;30.568;2022-11-27T11:19:34;-3.95;79.32
71128;SHT30;59249;59.736;30.568;2022-11-27T11:22:13;-3.86;79.43
71128;SHT30;59249;59.736;30.568;2022-11-27T11:24:46;-3.85;79.44
71128;SHT30;59249;59.736;30.568;2022-11-27T11:27:20;-3.83;79.35
71128;SHT30;59249;59.736;30.568;2022-11-27T11:29:57;-3.83;79.28
71128;SHT30;59249;59.736;30.568;2022-11-27T11:32:35;-3.84;79.07
71128;SHT30;59249;59.736;30.568;2022-11-27T11:35:09;-3.90;78.89
71128;SHT30;59249;59.736;30.568;2022-11-27T11:37:51;-3.88;78.82
71128;SHT30;59249;59.736;30.568;2022-11-27T11:40:24;-4.03;78.94
71128;SHT30;59249;59.736;30.568;2022-11-27T11:42:56;-3.99;79.25
71128;SHT30;59249;59.736;30.568;2022-11-27T11:45:30;-3.95;79.44
71128;SHT30;59249;59.736;30.568;2022-11-27T11:48:03;-3.95;79.33
71128;SHT30;59249;59.736;30.568;2022-11-27T11:50:50;-3.97;79.44
71128;SHT30;59249;59.736;30.568;2022-11-27T11:53:33;-3.94;79.66
71128;SHT30;59249;59.736;30.568;2022-11-27T11:56:17;-3.97;79.46
71128;SHT30;59249;59.736;30.568;2022-11-27T11:58:55;-3.92;79.75
71128;SHT30;59249;59.736;30.568;2022-11-27T12:01:59;-3.88;79.76
71128;SHT30;59249;59.736;30.568;2022-11-27T12:04:55;-3.90;79.60
71128;SHT30;59249;59.736;30.568;2022-11-27T12:07:49;-3.84;79.68
71128;SHT30;59249;59.736;30.568;2022-11-27T12:10:26;-3.82;79.51
71128;SHT30;59249;59.736;30.568;2022-11-27T12:13:10;-3.87;79.37
71128;SHT30;59249;59.736;30.568;2022-11-27T12:15:49;-3.97;79.62
71128;SHT30;59249;59.736;30.568;2022-11-27T12:18:26;-3.93;79.69
71128;SHT30;59249;59.736;30.568;2022-11-27T12:21:13;-3.93;79.85
71128;SHT30;59249;59.736;30.568;2022-11-27T12:24:00;-3.86;80.00
71128;SHT30;59249;59.736;30.568;2022-11-27T12:26:51;-3.93;79.77
71128;SHT30;59249;59.736;30.568;2022-11-27T12:30:11;-4.01;79.97
71128;SHT30;59249;59.736;30.568;2022-11-27T12:33:11;-3.93;79.92
71128;SHT30;59249;59.736;30.568;2022-11-27T12:35:58;-4.01;79.80
71128;SHT30;59249;59.736;30.568;2022-11-27T12:38:53;-4.08;80.11
71128;SHT30;59249;59.736;30.568;2022-11-27T12:41:58;-4.03;80.22
71128;SHT30;59249;59.736;30.568;2022-11-27T12:44:43;-4.06;80.19
71128;SHT30;59249;59.736;30.568;2022-11-27T12:47:21;-4.06;80.42
71128;SHT30;59249;59.736;30.568;2022-11-27T12:49:56;-4.04;80.42
71128;SHT30;59249;59.736;30.568;2022-11-27T12:52:36;-4.11;80.46
71128;SHT30;59249;59.736;30.568;2022-11-27T12:55:13;-4.13;80.38
71128;SHT30;59249;59.736;30.568;2022-11-27T12:57:48;-4.13;80.62
71128;SHT30;59249;59.736;30.568;2022-11-27T13:00:23;-4.16;80.63
71128;SHT30;59249;59.736;30.568;2022-11-27T13:03:03;-4.12;80.61
71128;SHT30;59249;59.736;30.568;2022-11-27T13:05:42;-4.17;80.66
71128;SHT30;59249;59.736;30.568;2022-11-27T13:08:18;-4.18;80.69
71128;SHT30;59249;59.736;30.568;2022-11-27T13:10:59;-4.22;80.77
71128;SHT30;59249;59.736;30.568;2022-11-27T13:13:37;-4.28;80.69
71128;SHT30;59249;59.736;30.568;2022-11-27T13:16:12;-4.23;80.68
71128;SHT30;59249;59.736;30.568;2022-11-27T13:18:52;-4.21;80.82
71128;SHT30;59249;59.736;30.568;2022-11-27T13:21:29;-4.22;80.90
71128;SHT30;59249;59.736;30.568;2022-11-27T13:24:02;-4.22;80.78
71128;SHT30;59249;59.736;30.568;2022-11-27T13:26:40;-4.23;80.76
71128;SHT30;59249;59.736;30.568;2022-11-27T13:29:23;-4.19;80.90
71128;SHT30;59249;59.736;30.568;2022-11-27T13:32:01;-4.21;80.87
71128;SHT30;59249;59.736;30.568;2022-11-27T13:34:43;-4.16;80.90
71128;SHT30;59249;59.736;30.568;2022-11-27T13:37:27;-4.12;80.90
71128;SHT30;59249;59.736;30.568;2022-11-27T13:40:04;-4.08;80.82
71128;SHT30;59249;59.736;30.568;2022-11-27T13:42:41;-4.04;80.85
71128;SHT30;59249;59.736;30.568;2022-11-27T13:45:21;-4.06;81.00
71128;SHT30;59249;59.736;30.568;2022-11-27T13:47:52;-4.06;80.98
71128;SHT30;59249;59.736;30.568;2022-11-27T13:50:22;-4.00;80.94
71128;SHT30;59249;59.736;30.568;2022-11-27T13:53:01;-4.04;81.02
71128;SHT30;59249;59.736;30.568;2022-11-27T13:55:35;-4.13;80.94
71128;SHT30;59249;59.736;30.568;2022-11-27T13:58:06;-4.06;80.95
71128;SHT30;59249;59.736;30.568;2022-11-27T14:00:39;-4.07;80.87
71128;SHT30;59249;59.736;30.568;2022-11-27T14:03:21;-4.07;81.00
71128;SHT30;59249;59.736;30.568;2022-11-27T14:05:53;-3.98;81.01
71128;SHT30;59249;59.736;30.568;2022-11-27T14:08:29;-3.99;80.99
71128;SHT30;59249;59.736;30.568;2022-11-27T14:11:05;-3.93;80.92
71128;SHT30;59249;59.736;30.568;2022-11-27T14:13:39;-3.93;80.88
71128;SHT30;59249;59.736;30.568;2022-11-27T14:16:24;-3.89;80.77
71128;SHT30;59249;59.736;30.568;2022-11-27T14:18:58;-3.95;80.79
71128;SHT30;59249;59.736;30.568;2022-11-27T14:21:38;-3.95;80.87
71128;SHT30;59249;59.736;30.568;2022-11-27T14:24:36;-3.94;80.84
71128;SHT30;59249;59.736;30.568;2022-11-27T14:27:18;-3.95;81.00
71128;SHT30;59249;59.736;30.568;2022-11-27T14:29:53;-3.99;80.93
71128;SHT30;59249;59.736;30.568;2022-11-27T14:32:37;-3.97;81.02
71128;SHT30;59249;59.736;30.568;2022-11-27T14:35:19;-3.97;81.03
71128;SHT30;59249;59.736;30.568;2022-11-27T14:37:49;-3.90;81.08
71128;SHT30;59249;59.736;30.568;2022-11-27T14:40:22;-3.91;80.74
71128;SHT30;59249;59.736;30.568;2022-11-27T14:43:07;-3.93;80.90
71128;SHT30;59249;59.736;30.568;2022-11-27T14:45:42;-3.94;81.02
71128;SHT30;59249;59.736;30.568;2022-11-27T14:48:19;-3.89;81.02
71128;SHT30;59249;59.736;30.568;2022-11-27T14:50:53;-3.89;81.02
71128;SHT30;59249;59.736;30.568;2022-11-27T14:53:26;-3.83;81.05
71128;SHT30;59249;59.736;30.568;2022-11-27T14:55:57;-3.85;80.96
71128;SHT30;59249;59.736;30.568;2022-11-27T14:58:29;-3.79;80.87
71128;SHT30;59249;59.736;30.568;2022-11-27T15:01:02;-3.74;80.70
71128;SHT30;59249;59.736;30.568;2022-11-27T15:03:32;-3.75;80.73
71128;SHT30;59249;59.736;30.568;2022-11-27T15:06:06;-3.76;80.71
71128;SHT30;59249;59.736;30.568;2022-11-27T15:08:37;-3.78;80.66
71128;SHT30;59249;59.736;30.568;2022-11-27T15:11:06;-3.78;80.52
71128;SHT30;59249;59.736;30.568;2022-11-27T15:13:37;-3.83;80.56
71128;SHT30;59249;59.736;30.568;2022-11-27T15:16:13;-3.83;80.74
71128;SHT30;59249;59.736;30.568;2022-11-27T15:18:50;-3.87;80.74
71128;SHT30;59249;59.736;30.568;2022-11-27T15:21:21;-3.86;80.90
71128;SHT30;59249;59.736;30.568;2022-11-27T15:23:56;-3.81;80.91
71128;SHT30;59249;59.736;30.568;2022-11-27T15:26:32;-3.76;80.76
71128;SHT30;59249;59.736;30.568;2022-11-27T15:29:02;-3.78;80.71
71128;SHT30;59249;59.736;30.568;2022-11-27T15:31:34;-3.77;80.72
71128;SHT30;59249;59.736;30.568;2022-11-27T15:34:18;-3.79;80.76
71128;SHT30;59249;59.736;30.568;2022-11-27T15:36:55;-3.75;80.67
71128;SHT30;59249;59.736;30.568;2022-11-27T15:39:33;-3.78;80.74
71128;SHT30;59249;59.736;30.568;2022-11-27T15:42:10;-3.71;80.76
71128;SHT30;59249;59.736;30.568;2022-11-27T15:44:42;-3.67;80.59
71128;SHT30;59249;59.736;30.568;2022-11-27T15:47:22;-3.74;80.66
71128;SHT30;59249;59.736;30.568;2022-11-27T15:49:51;-3.73;80.64
71128;SHT30;59249;59.736;30.568;2022-11-27T15:52:20;-3.73;80.81
71128;SHT30;59249;59.736;30.568;2022-11-27T15:54:49;-3.70;80.90
71128;SHT30;59249;59.736;30.568;2022-11-27T15:57:18;-3.67;80.84
71128;SHT30;59249;59.736;30.568;2022-11-27T15:59:48;-3.64;80.84
71128;SHT30;59249;59.736;30.568;2022-11-27T16:02:17;-3.55;80.86